Time;durP1;ratioP1;P1;durP2;ratioP2;P2;SDS_P1;SDS_P2;PMS_P1;PMS_P2;Temp;Humidity;BMP_temperature;BMP_pressure;BME280_temperature;BME280_humidity;BME280_pressure;Samples;Min_cycle;Max_cycle;Signal;HPM_P1;HPM_P2
2022/12/05 00:01:19;;;;;;;156.77;50.65;;;2.90;99.90;;;;;;5053665;28;20044;-45
2022/12/05 00:03:47;;;;;;;151.43;49.13;;;3.00;99.90;;;;;;5046396;28;20029;-45
2022/12/05 00:06:13;;;;;;;145.48;54.63;;;3.00;99.90;;;;;;5046285;28;20029;-46
2022/12/05 00:08:39;;;;;;;159.45;54.67;;;3.00;99.90;;;;;;5047155;28;20041;-45
2022/12/05 00:11:11;;;;;;;142.07;48.85;;;3.00;99.90;;;;;;5044339;28;20052;-44
2022/12/05 00:13:39;;;;;;;162.93;54.63;;;2.90;99.90;;;;;;5033266;28;20512;-46
2022/12/05 00:16:07;;;;;;;148.45;52.92;;;3.00;99.90;;;;;;5052790;28;20033;-43
2022/12/05 00:18:33;;;;;;;157.68;54.47;;;2.90;99.90;;;;;;5048424;28;20094;-44
2022/12/05 00:20:58;;;;;;;178.68;55.55;;;2.90;99.90;;;;;;5045218;28;20029;-43
2022/12/05 00:23:24;;;;;;;147.43;53.15;;;2.90;99.90;;;;;;5048693;28;20416;-46
2022/12/05 00:25:49;;;;;;;155.30;52.05;;;3.00;99.90;;;;;;5058611;28;20114;-45
2022/12/05 00:28:14;;;;;;;168.50;53.88;;;3.00;99.90;;;;;;5046267;28;20032;-45
2022/12/05 00:30:40;;;;;;;151.57;52.08;;;2.90;99.90;;;;;;5052269;28;20044;-45
2022/12/05 00:33:05;;;;;;;146.55;51.97;;;3.00;99.90;;;;;;5040324;28;20079;-46
2022/12/05 00:35:32;;;;;;;158.73;55.28;;;3.00;99.90;;;;;;5054885;28;20067;-46
2022/12/05 00:37:58;;;;;;;143.63;52.00;;;3.00;99.90;;;;;;5045477;28;20031;-47
2022/12/05 00:40:23;;;;;;;144.60;48.72;;;3.00;99.90;;;;;;5053425;28;20041;-46
2022/12/05 00:42:49;;;;;;;156.30;55.65;;;2.90;99.90;;;;;;5051853;28;20039;-45
2022/12/05 00:45:14;;;;;;;168.68;53.30;;;3.00;99.90;;;;;;5051575;28;20044;-45
2022/12/05 00:47:40;;;;;;;157.50;51.70;;;3.00;99.90;;;;;;5054970;28;20017;-46
2022/12/05 00:50:06;;;;;;;145.60;51.20;;;3.00;99.90;;;;;;5056273;28;20530;-45
2022/12/05 00:52:31;;;;;;;153.75;50.47;;;2.90;99.90;;;;;;5048449;28;20041;-46
2022/12/05 00:54:57;;;;;;;148.10;51.30;;;3.00;99.90;;;;;;5051132;28;20417;-45
2022/12/05 00:57:22;;;;;;;147.65;46.92;;;3.00;99.90;;;;;;5053586;28;20017;-47
2022/12/05 00:59:48;;;;;;;144.35;50.17;;;3.00;99.90;;;;;;5058168;28;20516;-46
2022/12/05 01:02:13;;;;;;;131.48;45.90;;;3.00;99.90;;;;;;5046762;28;20044;-46
2022/12/05 01:04:39;;;;;;;159.50;51.58;;;3.00;99.90;;;;;;5063555;28;20552;-46
2022/12/05 01:07:04;;;;;;;141.13;50.10;;;3.00;99.90;;;;;;5046426;28;20036;-46
2022/12/05 01:09:30;;;;;;;153.30;51.95;;;3.00;99.90;;;;;;5057014;28;20575;-46
2022/12/05 01:11:55;;;;;;;140.35;49.17;;;2.90;99.90;;;;;;5046401;28;20558;-42
2022/12/05 01:14:23;;;;;;;152.02;48.60;;;3.00;99.90;;;;;;5050263;28;20513;-46
2022/12/05 01:16:51;;;;;;;149.10;52.63;;;3.00;99.90;;;;;;5052034;28;20028;-43
2022/12/05 01:19:20;;;;;;;144.43;49.30;;;3.00;99.90;;;;;;5070425;28;20062;-44
2022/12/05 01:21:46;;;;;;;148.68;52.13;;;2.90;99.90;;;;;;5049173;28;20033;-44
2022/12/05 01:24:12;;;;;;;133.82;46.72;;;2.90;99.90;;;;;;5070101;28;20035;-44
2022/12/05 01:26:40;;;;;;;136.10;48.17;;;3.00;99.90;;;;;;5049536;28;20091;-48
2022/12/05 01:29:05;;;;;;;147.88;48.28;;;2.90;99.90;;;;;;5070383;28;20047;-44
2022/12/05 01:31:33;;;;;;;169.05;52.92;;;3.00;99.90;;;;;;5049364;28;20280;-44
2022/12/05 01:34:01;;;;;;;146.13;49.30;;;3.00;99.90;;;;;;5070370;28;20090;-46
2022/12/05 01:36:27;;;;;;;149.77;50.78;;;2.90;99.90;;;;;;5049078;28;20041;-44
2022/12/05 01:38:54;;;;;;;146.52;49.97;;;2.90;99.90;;;;;;5070115;28;20111;-45
2022/12/05 01:41:22;;;;;;;136.82;43.83;;;3.00;99.90;;;;;;5049336;28;20049;-44
2022/12/05 01:43:58;;;;;;;124.70;45.60;;;3.00;99.90;;;;;;5070245;28;20056;-44
2022/12/05 01:46:25;;;;;;;141.75;49.22;;;3.00;99.90;;;;;;5049012;28;20492;-44
2022/12/05 01:48:55;;;;;;;164.80;52.92;;;3.00;99.90;;;;;;5069809;28;20032;-45
2022/12/05 01:51:22;;;;;;;148.38;49.13;;;2.90;99.90;;;;;;5048312;28;20739;-46
2022/12/05 01:53:48;;;;;;;142.50;48.80;;;2.90;99.90;;;;;;5070021;28;20481;-44
2022/12/05 01:56:13;;;;;;;150.68;52.35;;;3.00;99.90;;;;;;5059456;28;20055;-44
2022/12/05 01:58:41;;;;;;;142.75;49.30;;;2.90;99.90;;;;;;5050926;28;20108;-44
2022/12/05 02:01:06;;;;;;;137.77;46.28;;;3.00;99.90;;;;;;5067929;28;20028;-45
2022/12/05 02:03:33;;;;;;;133.18;45.22;;;2.90;99.90;;;;;;5050703;28;20823;-43
2022/12/05 02:05:59;;;;;;;147.93;48.50;;;3.00;99.90;;;;;;5064618;28;20077;-43
2022/12/05 02:08:27;;;;;;;151.15;47.10;;;3.00;99.90;;;;;;5050556;28;20040;-46
2022/12/05 02:10:56;;;;;;;141.52;46.00;;;3.00;99.90;;;;;;5067435;28;20028;-44
2022/12/05 02:13:53;;;;;;;149.80;47.65;;;3.00;99.90;;;;;;5050268;28;20029;-44
2022/12/05 02:16:29;;;;;;;162.48;51.85;;;3.00;99.90;;;;;;5051007;28;20036;-43
2022/12/05 02:19:26;;;;;;;148.75;48.20;;;3.00;99.90;;;;;;5030109;28;20424;-43
2022/12/05 02:22:21;;;;;;;139.02;48.75;;;3.00;99.90;;;;;;5044275;28;20116;-43
2022/12/05 02:25:10;;;;;;;134.05;49.53;;;3.00;99.90;;;;;;5006109;28;20037;-45
2022/12/05 02:27:58;;;;;;;146.52;47.70;;;3.00;99.90;;;;;;5052620;28;20492;-45
2022/12/05 02:30:25;;;;;;;130.02;45.10;;;3.00;99.90;;;;;;5029877;28;20033;-46
2022/12/05 02:33:05;;;;;;;144.13;46.97;;;3.00;99.90;;;;;;5052299;28;20040;-45
2022/12/05 02:35:45;;;;;;;139.25;46.70;;;3.00;99.90;;;;;;5037106;28;20029;-47
2022/12/05 02:38:33;;;;;;;134.63;45.22;;;3.00;99.90;;;;;;5069478;28;20554;-46
2022/12/05 02:41:09;;;;;;;151.90;46.67;;;3.00;99.90;;;;;;5044521;28;20056;-46
2022/12/05 02:43:49;;;;;;;152.13;48.33;;;3.10;99.90;;;;;;5029562;28;20049;-46
2022/12/05 02:46:20;;;;;;;136.38;45.75;;;3.00;99.90;;;;;;5049137;28;20404;-46
2022/12/05 02:48:48;;;;;;;141.55;46.35;;;3.00;99.90;;;;;;5029550;28;20033;-46
2022/12/05 02:51:17;;;;;;;153.48;51.60;;;3.00;99.90;;;;;;5066577;28;20420;-49
2022/12/05 02:53:45;;;;;;;147.00;50.60;;;3.00;99.90;;;;;;5049059;28;20489;-46
2022/12/05 02:56:11;;;;;;;146.40;47.42;;;3.00;99.90;;;;;;5066682;28;20408;-47
2022/12/05 02:58:44;;;;;;;149.70;49.55;;;3.00;99.90;;;;;;5049695;28;20031;-46
2022/12/05 03:01:10;;;;;;;139.52;48.67;;;3.00;99.90;;;;;;5047348;28;20078;-45
2022/12/05 03:03:36;;;;;;;134.55;46.38;;;3.00;99.90;;;;;;5049606;28;20344;-46
2022/12/05 03:06:10;;;;;;;124.38;45.30;;;3.00;99.90;;;;;;5063589;28;20036;-46
2022/12/05 03:08:50;;;;;;;125.20;42.38;;;3.00;99.90;;;;;;5029381;28;20029;-46
2022/12/05 03:11:15;;;;;;;129.32;47.53;;;3.00;99.90;;;;;;5048677;28;20424;-45
2022/12/05 03:13:46;;;;;;;134.20;48.10;;;3.00;99.90;;;;;;5049458;28;20172;-46
2022/12/05 03:16:19;;;;;;;128.35;45.92;;;3.00;99.90;;;;;;5047308;28;20040;-48
2022/12/05 03:18:49;;;;;;;124.53;43.42;;;3.00;99.90;;;;;;5028994;28;20095;-46
2022/12/05 03:21:28;;;;;;;137.48;47.70;;;3.00;99.90;;;;;;5048396;28;20457;-46
2022/12/05 03:24:00;;;;;;;123.38;44.40;;;3.00;99.90;;;;;;5029039;28;20037;-48
2022/12/05 03:26:36;;;;;;;125.22;41.72;;;3.00;99.90;;;;;;5039668;28;20078;-46
2022/12/05 03:29:25;;;;;;;121.72;41.17;;;3.00;99.90;;;;;;5028964;28;20065;-48
2022/12/05 03:32:10;;;;;;;116.82;42.00;;;3.00;99.90;;;;;;5043042;28;20033;-47
2022/12/05 03:35:00;;;;;;;123.45;38.92;;;3.00;99.90;;;;;;5028878;28;20392;-46
2022/12/05 03:37:30;;;;;;;118.85;40.40;;;3.10;99.90;;;;;;5028744;28;20116;-45
2022/12/05 03:40:25;;;;;;;117.35;41.47;;;3.10;99.90;;;;;;5028462;28;20029;-43
2022/12/05 03:42:57;;;;;;;120.25;43.25;;;3.00;99.90;;;;;;5028847;28;20074;-46
2022/12/05 03:45:31;;;;;;;119.82;40.85;;;3.00;99.90;;;;;;5033981;28;20025;-45
2022/12/05 03:48:12;;;;;;;131.98;41.85;;;3.00;99.90;;;;;;5068730;28;20024;-45
2022/12/05 03:50:43;;;;;;;112.57;42.25;;;3.00;99.90;;;;;;5037894;28;20458;-46
2022/12/05 03:53:15;;;;;;;118.22;41.03;;;3.00;99.90;;;;;;5067360;28;20151;-45
2022/12/05 03:55:43;;;;;;;103.57;40.30;;;3.00;99.90;;;;;;5038844;28;20021;-46
2022/12/05 03:58:21;;;;;;;106.43;39.50;;;3.00;99.90;;;;;;5068620;28;20089;-46
2022/12/05 04:00:52;;;;;;;113.25;39.58;;;3.00;99.90;;;;;;5053387;28;20017;-46
2022/12/05 04:03:37;;;;;;;107.82;39.78;;;3.00;99.90;;;;;;5068494;28;20028;-45
2022/12/05 04:06:09;;;;;;;109.03;40.47;;;3.00;99.90;;;;;;5036375;28;20025;-49
2022/12/05 04:08:43;;;;;;;88.88;35.17;;;3.00;99.90;;;;;;5028770;28;20041;-54
2022/12/05 04:11:16;;;;;;;107.00;37.53;;;3.00;99.90;;;;;;5027768;28;20064;-45
2022/12/05 04:13:53;;;;;;;90.22;34.97;;;3.00;99.90;;;;;;5068767;28;20099;-49
2022/12/05 04:19:26;;;;;;;102.50;37.53;;;3.00;99.90;;;;;;5068707;28;20105;-53
2022/12/05 04:21:55;;;;;;;95.75;35.60;;;3.00;99.90;;;;;;5039499;28;20111;-45
2022/12/05 04:27:28;;;;;;;89.43;34.50;;;3.00;99.90;;;;;;5045955;28;20106;-44
2022/12/05 04:30:15;;;;;;;85.70;31.30;;;3.00;99.90;;;;;;5032463;28;20397;-45
2022/12/05 04:32:50;;;;;;;92.78;34.25;;;3.00;99.90;;;;;;5057289;28;20036;-46
2022/12/05 04:35:29;;;;;;;81.47;31.20;;;3.00;99.90;;;;;;5032315;28;20723;-44
2022/12/05 04:38:02;;;;;;;74.07;30.67;;;3.00;99.90;;;;;;5045650;28;20037;-45
2022/12/05 04:40:43;;;;;;;83.75;30.88;;;3.00;99.90;;;;;;5039621;28;20045;-49
2022/12/05 04:43:10;;;;;;;73.25;28.40;;;3.00;99.90;;;;;;5069993;28;20043;-45
2022/12/05 04:45:38;;;;;;;84.38;30.40;;;3.10;99.90;;;;;;5052135;28;20024;-45
2022/12/05 04:48:10;;;;;;;85.47;30.40;;;3.10;99.90;;;;;;5053285;28;20039;-45
2022/12/05 04:50:38;;;;;;;67.32;27.90;;;3.00;99.90;;;;;;5032127;28;20401;-45
2022/12/05 04:53:05;;;;;;;65.07;26.35;;;3.10;99.90;;;;;;5052578;28;20041;-45
2022/12/05 04:55:33;;;;;;;63.88;27.05;;;3.10;99.90;;;;;;5057473;28;20562;-47
2022/12/05 04:58:07;;;;;;;63.25;26.02;;;3.10;99.90;;;;;;5051801;28;20067;-46
2022/12/05 05:00:38;;;;;;;66.53;27.85;;;3.10;99.90;;;;;;5044012;28;20055;-45
2022/12/05 05:03:15;;;;;;;70.13;26.20;;;3.00;99.90;;;;;;5032225;28;20048;-50
2022/12/05 05:05:46;;;;;;;60.28;25.95;;;3.00;99.90;;;;;;5055132;28;20032;-50
2022/12/05 05:08:17;;;;;;;66.40;26.58;;;3.00;99.90;;;;;;5049180;28;20033;-45
2022/12/05 05:11:11;;;;;;;60.05;24.90;;;3.00;99.90;;;;;;5050731;28;20029;-44
2022/12/05 05:13:37;;;;;;;54.70;24.48;;;3.10;99.90;;;;;;5031754;28;20116;-48
2022/12/05 05:16:03;;;;;;;55.17;24.25;;;3.10;99.90;;;;;;5071714;28;20095;-43
2022/12/05 05:18:29;;;;;;;61.72;26.23;;;3.10;99.90;;;;;;5051651;28;20025;-46
2022/12/05 05:20:55;;;;;;;60.05;25.55;;;3.00;99.90;;;;;;5069844;28;20058;-43
2022/12/05 05:23:20;;;;;;;53.95;23.80;;;3.00;99.90;;;;;;5051697;28;20052;-43
2022/12/05 05:25:54;;;;;;;53.65;22.40;;;3.00;99.90;;;;;;5049969;28;20065;-44
2022/12/05 05:28:20;;;;;;;52.72;23.17;;;3.00;99.90;;;;;;5071238;28;20025;-45
2022/12/05 05:30:46;;;;;;;48.28;22.45;;;3.00;99.90;;;;;;5049527;28;20564;-44
2022/12/05 05:33:11;;;;;;;48.72;22.10;;;3.00;99.90;;;;;;5069321;28;20033;-44
2022/12/05 05:35:37;;;;;;;48.88;22.35;;;3.00;99.90;;;;;;5053618;28;20052;-47
2022/12/05 05:38:03;;;;;;;46.08;22.48;;;3.00;99.90;;;;;;5059230;28;20397;-44
2022/12/05 05:40:29;;;;;;;53.25;22.67;;;3.10;99.90;;;;;;5063571;28;20041;-45
2022/12/05 05:42:54;;;;;;;50.03;22.20;;;3.10;99.90;;;;;;5049718;28;20033;-42
2022/12/05 05:45:20;;;;;;;48.50;21.83;;;3.00;99.90;;;;;;5049937;28;20067;-43
2022/12/05 05:47:47;;;;;;;46.75;21.05;;;3.00;99.90;;;;;;5070078;28;20040;-43
2022/12/05 05:50:14;;;;;;;48.40;23.38;;;3.10;99.90;;;;;;5049243;28;20618;-44
2022/12/05 05:52:39;;;;;;;43.30;20.15;;;3.00;99.90;;;;;;5069921;28;20047;-44
2022/12/05 05:55:06;;;;;;;49.53;21.88;;;3.10;99.90;;;;;;5049121;28;20396;-44
2022/12/05 05:57:32;;;;;;;46.65;21.38;;;3.00;99.90;;;;;;5068500;28;20377;-43
2022/12/05 05:59:57;;;;;;;44.35;20.90;;;3.00;99.90;;;;;;5049281;28;20032;-44
2022/12/05 06:02:23;;;;;;;40.42;20.20;;;3.00;99.90;;;;;;5069326;28;20032;-44
2022/12/05 06:04:48;;;;;;;49.75;21.63;;;3.00;99.90;;;;;;5051212;28;20036;-46
2022/12/05 06:07:14;;;;;;;47.55;20.85;;;3.00;99.90;;;;;;5064263;28;20107;-44
2022/12/05 06:09:40;;;;;;;46.13;22.40;;;3.00;99.90;;;;;;5048908;28;20147;-44
2022/12/05 06:12:06;;;;;;;48.22;19.38;;;3.00;99.90;;;;;;5069246;28;20119;-44
2022/12/05 06:14:31;;;;;;;41.00;17.70;;;3.00;99.90;;;;;;5048818;28;20071;-44
2022/12/05 06:16:57;;;;;;;46.53;20.60;;;3.00;99.90;;;;;;5069408;28;20032;-44
2022/12/05 06:19:22;;;;;;;45.67;19.95;;;3.00;99.90;;;;;;5048520;28;20685;-44
2022/12/05 06:21:49;;;;;;;43.40;18.23;;;3.00;99.90;;;;;;5069205;28;20035;-45
2022/12/05 06:24:15;;;;;;;45.03;20.42;;;3.00;99.90;;;;;;5048353;28;20118;-45
2022/12/05 06:26:40;;;;;;;45.42;19.88;;;3.00;99.90;;;;;;5069214;28;20060;-44
2022/12/05 06:29:06;;;;;;;42.00;19.63;;;3.00;99.90;;;;;;5050806;28;20731;-44
2022/12/05 06:31:32;;;;;;;48.30;21.15;;;3.00;99.90;;;;;;5048595;28;20033;-45
2022/12/05 06:34:02;;;;;;;44.92;20.15;;;3.00;99.90;;;;;;5049720;28;20033;-42
2022/12/05 06:36:28;;;;;;;42.58;20.23;;;2.90;99.90;;;;;;5066427;28;20048;-44
2022/12/05 06:38:58;;;;;;;42.00;20.13;;;2.90;99.90;;;;;;5048767;28;20032;-43
2022/12/05 06:41:24;;;;;;;46.90;19.98;;;3.00;99.90;;;;;;5053460;28;20053;-46
2022/12/05 06:43:55;;;;;;;52.35;21.42;;;3.00;99.90;;;;;;5067858;28;20086;-47
2022/12/05 06:46:21;;;;;;;48.90;21.85;;;3.00;99.90;;;;;;5046716;28;20040;-47
2022/12/05 06:48:47;;;;;;;49.35;20.88;;;2.90;99.90;;;;;;5067976;28;20029;-46
2022/12/05 06:51:15;;;;;;;47.65;21.58;;;2.90;99.90;;;;;;5056660;28;20436;-47
2022/12/05 06:53:41;;;;;;;58.63;23.00;;;2.90;99.90;;;;;;5048429;28;20533;-46
2022/12/05 06:56:10;;;;;;;50.72;22.85;;;2.90;99.90;;;;;;5065790;28;20120;-46
2022/12/05 06:58:36;;;;;;;47.92;22.30;;;2.90;99.90;;;;;;5048316;28;20104;-45
2022/12/05 07:03:47;;;;;;;51.35;22.58;;;2.90;99.90;;;;;;5043191;28;20066;-44
2022/12/05 07:06:13;;;;;;;45.25;21.35;;;2.90;99.90;;;;;;5065018;28;20036;-46
2022/12/05 07:08:40;;;;;;;49.97;20.52;;;2.90;99.90;;;;;;5047067;28;20037;-44
2022/12/05 07:11:06;;;;;;;53.80;22.70;;;2.90;99.90;;;;;;5067348;28;20035;-49
2022/12/05 07:13:32;;;;;;;53.45;23.00;;;2.90;99.90;;;;;;5046960;28;20037;-49
2022/12/05 07:15:58;;;;;;;45.13;20.90;;;2.90;99.90;;;;;;5067176;28;20426;-47
2022/12/05 07:18:24;;;;;;;48.80;19.67;;;2.90;99.90;;;;;;5046659;28;20025;-44
2022/12/05 07:21:01;;;;;;;41.50;19.85;;;2.90;99.90;;;;;;5067475;28;20063;-45
2022/12/05 07:23:27;;;;;;;40.55;19.13;;;3.00;99.90;;;;;;5040195;28;20037;-46
2022/12/05 07:25:53;;;;;;;41.30;19.77;;;2.90;99.90;;;;;;5067162;28;20039;-43
2022/12/05 07:28:19;;;;;;;38.88;18.83;;;2.90;99.90;;;;;;5046553;28;20103;-42
2022/12/05 07:30:44;;;;;;;45.75;20.98;;;3.00;99.90;;;;;;5067193;28;20147;-42
2022/12/05 07:33:10;;;;;;;44.03;20.42;;;3.00;99.90;;;;;;5046441;28;20048;-45
2022/12/05 07:35:35;;;;;;;39.63;17.98;;;2.90;99.90;;;;;;5065033;28;20036;-44
2022/12/05 07:38:01;;;;;;;40.10;19.15;;;2.90;99.90;;;;;;5067854;28;20047;-44
2022/12/05 07:40:27;;;;;;;43.15;18.88;;;3.00;99.90;;;;;;5050167;28;20036;-44
2022/12/05 07:42:52;;;;;;;42.97;20.23;;;3.00;99.90;;;;;;5067800;28;20059;-44
2022/12/05 07:45:19;;;;;;;45.00;21.23;;;3.00;99.90;;;;;;5045488;28;20052;-47
2022/12/05 07:47:45;;;;;;;41.45;20.13;;;3.00;99.90;;;;;;5047692;28;20025;-43
2022/12/05 07:50:11;;;;;;;35.25;18.08;;;3.00;99.90;;;;;;5064925;28;20036;-48
2022/12/05 07:52:36;;;;;;;41.00;19.45;;;3.00;99.90;;;;;;5067438;28;20443;-50
2022/12/05 07:55:02;;;;;;;44.03;19.02;;;3.00;99.90;;;;;;5047097;28;20603;-48
2022/12/05 07:57:31;;;;;;;43.38;18.35;;;3.00;99.90;;;;;;5067781;28;20663;-52
2022/12/05 07:59:56;;;;;;;39.33;18.40;;;3.10;99.90;;;;;;5046142;28;20098;-50
2022/12/05 08:02:22;;;;;;;42.33;20.33;;;3.10;99.90;;;;;;5055292;28;20048;-50
2022/12/05 08:04:47;;;;;;;35.45;18.10;;;3.10;99.90;;;;;;5050852;28;20123;-47
2022/12/05 08:07:13;;;;;;;41.22;17.33;;;3.10;99.90;;;;;;5048368;28;20044;-49
2022/12/05 08:09:38;;;;;;;36.20;18.23;;;3.10;99.90;;;;;;5056616;28;20552;-49
2022/12/05 08:12:04;;;;;;;38.13;18.58;;;3.10;99.90;;;;;;5055002;28;20447;-48
2022/12/05 08:14:30;;;;;;;40.72;18.40;;;3.10;99.90;;;;;;5070617;28;20043;-52
2022/12/05 08:16:55;;;;;;;40.95;17.95;;;3.10;99.90;;;;;;5052905;28;20396;-49
2022/12/05 08:19:21;;;;;;;38.75;18.60;;;3.10;99.90;;;;;;5057097;28;20060;-47
2022/12/05 08:21:46;;;;;;;42.72;18.75;;;3.10;99.90;;;;;;5071552;28;20036;-50
2022/12/05 08:24:12;;;;;;;39.70;18.27;;;3.10;99.90;;;;;;5050844;28;20624;-48
2022/12/05 08:26:38;;;;;;;38.10;17.98;;;3.20;99.90;;;;;;5071339;28;20031;-47
2022/12/05 08:29:22;;;;;;;38.25;18.42;;;3.20;99.90;;;;;;5060678;28;20115;-49
2022/12/05 08:31:50;;;;;;;32.33;16.15;;;3.10;99.90;;;;;;5032084;28;20026;-47
2022/12/05 08:34:17;;;;;;;33.42;16.30;;;3.20;99.90;;;;;;5057616;28;20111;-53
2022/12/05 08:36:43;;;;;;;35.80;17.27;;;3.20;99.90;;;;;;5071360;28;20057;-51
2022/12/05 08:39:13;;;;;;;36.92;17.75;;;3.20;99.90;;;;;;5061428;28;20032;-51
2022/12/05 08:41:39;;;;;;;37.97;17.35;;;3.20;99.90;;;;;;5051785;28;20045;-51
2022/12/05 08:44:06;;;;;;;37.65;18.20;;;3.20;99.90;;;;;;5069017;28;20028;-48
2022/12/05 08:46:34;;;;;;;34.67;17.63;;;3.10;99.90;;;;;;5052021;28;20086;-46
2022/12/05 08:49:00;;;;;;;35.17;17.73;;;3.10;99.90;;;;;;5069222;28;20024;-45
2022/12/05 08:51:26;;;;;;;36.58;18.17;;;3.10;99.90;;;;;;5052017;28;20121;-45
2022/12/05 08:53:51;;;;;;;32.97;16.50;;;3.10;99.90;;;;;;5068907;28;20036;-45
2022/12/05 08:56:17;;;;;;;35.97;17.48;;;3.10;99.90;;;;;;5052078;28;20610;-49
2022/12/05 08:58:42;;;;;;;35.17;17.80;;;3.10;99.90;;;;;;5068909;28;20027;-46
2022/12/05 09:01:20;;;;;;;32.05;16.55;;;3.20;99.90;;;;;;5071530;28;20984;-45
2022/12/05 09:03:46;;;;;;;36.28;18.40;;;3.10;99.90;;;;;;5045016;28;20066;-45
2022/12/05 09:06:14;;;;;;;34.58;17.70;;;3.20;99.90;;;;;;5046415;28;20103;-45
2022/12/05 09:08:41;;;;;;;33.25;17.42;;;3.20;99.90;;;;;;5069054;28;20404;-45
2022/12/05 09:11:09;;;;;;;34.42;18.05;;;3.20;99.90;;;;;;5071206;28;20089;-46
2022/12/05 09:13:35;;;;;;;30.35;16.23;;;3.10;99.90;;;;;;5054945;28;20058;-48
2022/12/05 09:16:09;;;;;;;34.58;18.27;;;3.20;99.90;;;;;;5071265;28;20512;-45
2022/12/05 09:18:34;;;;;;;35.22;18.02;;;3.20;99.90;;;;;;5041840;28;20020;-44
2022/12/05 09:21:07;;;;;;;36.88;17.45;;;3.20;99.90;;;;;;5071191;28;20095;-44
2022/12/05 09:23:32;;;;;;;34.50;16.48;;;3.20;99.90;;;;;;5055459;28;20032;-44
2022/12/05 09:26:00;;;;;;;30.80;16.65;;;3.20;99.90;;;;;;5071059;28;20500;-45
2022/12/05 09:28:26;;;;;;;38.58;19.20;;;3.20;99.90;;;;;;5054305;28;20016;-46
2022/12/05 09:31:00;;;;;;;34.97;17.30;;;3.20;99.90;;;;;;5071117;28;20381;-43
2022/12/05 09:33:27;;;;;;;36.15;18.60;;;3.20;99.90;;;;;;5038929;28;20036;-45
2022/12/05 09:35:52;;;;;;;34.05;17.45;;;3.20;99.90;;;;;;5070843;28;20089;-44
2022/12/05 09:38:18;;;;;;;35.88;18.05;;;3.20;99.90;;;;;;5053302;28;20028;-45
2022/12/05 09:40:43;;;;;;;47.33;21.80;;;3.20;99.90;;;;;;5064448;28;20051;-44
2022/12/05 09:43:44;;;;;;;41.05;20.05;;;3.20;99.90;;;;;;5051491;28;20037;-44
2022/12/05 09:46:29;;;;;;;36.58;17.52;;;3.20;99.90;;;;;;5070566;28;20106;-45
2022/12/05 09:48:57;;;;;;;37.05;20.00;;;3.20;99.90;;;;;;5046824;28;20119;-44
2022/12/05 09:51:25;;;;;;;37.92;19.67;;;3.30;99.90;;;;;;5050688;28;20029;-44
2022/12/05 09:53:51;;;;;;;47.85;22.35;;;3.30;99.90;;;;;;5068023;28;20048;-47
2022/12/05 09:56:24;;;;;;;40.40;20.92;;;3.30;99.90;;;;;;5050866;28;20303;-44
2022/12/05 09:58:52;;;;;;;48.92;22.13;;;3.30;99.90;;;;;;5043997;28;20393;-45
2022/12/05 10:01:42;;;;;;;50.40;23.33;;;3.30;99.90;;;;;;5050434;28;20033;-44
2022/12/05 10:04:26;;;;;;;46.53;22.23;;;3.30;99.90;;;;;;5050037;28;20443;-44
2022/12/05 10:07:27;;;;;;;50.75;22.40;;;3.30;99.90;;;;;;5027476;28;20033;-46
2022/12/05 10:10:01;;;;;;;50.85;24.00;;;3.30;99.90;;;;;;5040576;28;20111;-46
2022/12/05 10:12:45;;;;;;;55.10;24.75;;;3.30;99.90;;;;;;5030264;28;20100;-44
2022/12/05 10:15:33;;;;;;;61.67;27.20;;;3.30;99.90;;;;;;5047739;28;20044;-44
2022/12/05 10:18:03;;;;;;;52.22;24.70;;;3.40;99.90;;;;;;5030829;28;20637;-47
2022/12/05 10:20:35;;;;;;;58.90;27.45;;;3.40;99.90;;;;;;5070053;28;20040;-49
2022/12/05 10:23:37;;;;;;;64.00;27.25;;;3.40;99.90;;;;;;5031094;28;20030;-47
2022/12/05 10:26:06;;;;;;;63.50;26.85;;;3.40;99.90;;;;;;5058946;28;20128;-47
2022/12/05 10:28:40;;;;;;;68.50;27.77;;;3.40;99.90;;;;;;5053590;28;20032;-51
2022/12/05 10:31:11;;;;;;;57.33;26.52;;;3.40;99.90;;;;;;5069547;28;20024;-47
2022/12/05 10:33:41;;;;;;;57.20;26.85;;;3.40;99.90;;;;;;5040670;28;20035;-49
2022/12/05 10:36:13;;;;;;;59.83;27.05;;;3.50;99.90;;;;;;5069599;28;20057;-46
2022/12/05 10:38:41;;;;;;;65.13;28.25;;;3.50;99.90;;;;;;5054367;28;20055;-52
2022/12/05 10:41:10;;;;;;;60.97;27.40;;;3.50;99.90;;;;;;5059948;28;20051;-46
2022/12/05 10:43:38;;;;;;;66.47;28.45;;;3.50;99.90;;;;;;5067124;28;20036;-48
2022/12/05 10:46:04;;;;;;;68.60;30.92;;;3.50;99.90;;;;;;5069659;28;20073;-46
2022/12/05 10:48:33;;;;;;;68.90;29.88;;;3.50;99.90;;;;;;5052292;28;20036;-46
2022/12/05 10:50:59;;;;;;;65.00;28.92;;;3.50;99.90;;;;;;5069326;28;20044;-46
2022/12/05 10:53:31;;;;;;;71.10;31.02;;;3.50;99.90;;;;;;5052648;28;20052;-44
2022/12/05 10:55:57;;;;;;;65.72;29.27;;;3.60;99.90;;;;;;5069421;28;20028;-49
2022/12/05 10:58:27;;;;;;;62.03;27.85;;;3.60;99.90;;;;;;5052223;28;20036;-46
2022/12/05 11:00:56;;;;;;;60.78;28.42;;;3.60;99.90;;;;;;5069269;28;20533;-44
2022/12/05 11:03:32;;;;;;;61.25;27.63;;;3.60;99.90;;;;;;5051627;28;20028;-44
2022/12/05 11:06:12;;;;;;;64.97;30.10;;;3.60;99.90;;;;;;5052948;28;20159;-44
2022/12/05 11:08:38;;;;;;;60.13;27.25;;;3.60;99.90;;;;;;5040710;28;20075;-44
2022/12/05 11:11:06;;;;;;;62.47;29.73;;;3.60;99.90;;;;;;5068999;28;20508;-44
2022/12/05 11:13:33;;;;;;;68.65;29.48;;;3.60;99.90;;;;;;5053009;28;20028;-45
2022/12/05 11:15:59;;;;;;;61.58;26.38;;;3.60;99.90;;;;;;5068967;28;20150;-46
2022/12/05 11:18:30;;;;;;;59.60;28.45;;;3.70;99.90;;;;;;5052220;28;20115;-49
2022/12/05 11:21:08;;;;;;;54.53;25.23;;;3.70;99.90;;;;;;5068870;28;20086;-44
2022/12/05 11:23:34;;;;;;;57.63;26.17;;;3.70;99.90;;;;;;5039323;28;20442;-48
2022/12/05 11:25:59;;;;;;;57.42;25.23;;;3.70;99.90;;;;;;5068774;28;20111;-44
2022/12/05 11:28:29;;;;;;;58.65;27.95;;;3.80;99.90;;;;;;5052155;28;20029;-44
2022/12/05 11:30:56;;;;;;;57.67;27.48;;;3.70;99.90;;;;;;5068806;28;20027;-44
2022/12/05 11:33:24;;;;;;;56.38;25.00;;;3.70;99.90;;;;;;5046973;28;20025;-47
2022/12/05 11:35:52;;;;;;;51.22;24.08;;;3.80;99.90;;;;;;5066397;28;20557;-44
2022/12/05 11:38:22;;;;;;;54.65;24.42;;;3.80;99.90;;;;;;5068454;28;20036;-43
2022/12/05 11:41:12;;;;;;;54.92;24.08;;;3.80;99.90;;;;;;5049974;28;20051;-47
2022/12/05 11:43:59;;;;;;;52.38;25.38;;;3.80;99.90;;;;;;5038066;28;20070;-43
2022/12/05 11:46:58;;;;;;;45.70;22.38;;;3.80;99.90;;;;;;5041446;28;20038;-44
2022/12/05 11:50:03;;;;;;;54.58;25.10;;;3.80;99.90;;;;;;5058711;28;20039;-45
2022/12/05 11:52:50;;;;;;;52.05;22.73;;;3.90;99.90;;;;;;5048470;28;20642;-47
2022/12/05 11:55:25;;;;;;;46.58;22.17;;;3.90;99.90;;;;;;5032698;28;20048;-47
2022/12/05 11:58:14;;;;;;;50.17;23.80;;;3.90;99.90;;;;;;5034080;28;20029;-48
2022/12/05 12:00:57;;;;;;;48.72;23.98;;;3.90;99.90;;;;;;5035342;28;20033;-46
2022/12/05 12:03:37;;;;;;;47.67;23.02;;;3.90;99.90;;;;;;5039527;28;20492;-46
2022/12/05 12:06:46;;;;;;;43.85;21.38;;;3.80;99.90;;;;;;5034575;28;20037;-45
2022/12/05 12:09:22;;;;;;;42.38;21.08;;;3.80;99.90;;;;;;5046152;28;20025;-46
2022/12/05 12:11:56;;;;;;;40.70;19.33;;;3.90;99.90;;;;;;5031885;28;20075;-49
2022/12/05 12:14:46;;;;;;;36.35;18.30;;;3.90;99.90;;;;;;5049126;28;20032;-47
2022/12/05 12:17:42;;;;;;;41.83;19.20;;;3.90;99.90;;;;;;5032327;28;20056;-43
2022/12/05 12:20:41;;;;;;;38.97;19.13;;;3.90;99.90;;;;;;5033436;28;20032;-43
2022/12/05 12:23:34;;;;;;;42.00;20.23;;;3.90;99.90;;;;;;5029261;28;20036;-44
2022/12/05 12:26:17;;;;;;;33.53;16.92;;;3.90;99.90;;;;;;5025995;28;20137;-44
2022/12/05 12:28:59;;;;;;;37.42;19.52;;;3.90;99.90;;;;;;5043894;28;20575;-47
2022/12/05 12:31:38;;;;;;;41.63;20.55;;;3.90;99.90;;;;;;5038932;28;20408;-44
2022/12/05 12:34:28;;;;;;;38.58;19.23;;;3.90;99.90;;;;;;5065923;28;20063;-43
2022/12/05 12:37:06;;;;;;;41.65;20.23;;;3.90;99.90;;;;;;5048270;28;20067;-46
2022/12/05 12:39:41;;;;;;;39.75;19.23;;;3.90;99.90;;;;;;5030285;28;20025;-46
2022/12/05 12:42:06;;;;;;;35.53;18.95;;;3.90;99.90;;;;;;5045740;28;20509;-47
2022/12/05 12:44:52;;;;;;;40.33;19.77;;;3.90;99.90;;;;;;5065039;28;20044;-46
2022/12/05 12:47:44;;;;;;;34.25;17.17;;;3.90;99.90;;;;;;5043148;28;20036;-45
2022/12/05 12:50:21;;;;;;;30.67;16.55;;;4.00;99.90;;;;;;5044305;28;20485;-46
2022/12/05 12:53:03;;;;;;;39.13;18.42;;;4.00;99.90;;;;;;5065725;28;20409;-44
2022/12/05 12:55:53;;;;;;;37.15;18.35;;;4.00;99.90;;;;;;5043991;28;20025;-46
2022/12/05 12:58:44;;;;;;;35.35;17.73;;;4.00;99.90;;;;;;5054793;28;20539;-49
2022/12/05 13:01:47;;;;;;;38.10;18.58;;;4.00;99.90;;;;;;5066437;28;20041;-48
2022/12/05 13:04:22;;;;;;;33.22;16.67;;;4.00;99.90;;;;;;5038649;28;20531;-47